Terminal Aerodrome Forecast
Issued by NWS Grand Forks, ND

Home | Current Version | Previous Version | Graphics & Text | Print | Product List | Glossary On
Versions: 1 2 3 4 5 6 7 8 9 10 11 12 13 14 15 16 17 18 19 20 21 22 23 24 25
000
FTUS43 KFGF 281428 AAA
TAFFAR
TAF AMD
KFAR 281428Z 2814/2912 36005KT 1/4SM FG VV002
     FM281500 01006KT 3SM BR BKN006
     FM281600 02004KT P6SM SCT008=

USA.gov is the U.S. government's official web portal to all federal, state and local government web resources and services.